createdAt,value
2023-05-05T00:01:26.323Z,97234.97
2023-05-05T00:03:55.967Z,97232.69
2023-05-05T00:06:24.395Z,97241.31
2023-05-05T00:08:52.492Z,97233.38
2023-05-05T00:11:20.574Z,97236.16
2023-05-05T00:13:49.656Z,97232.16
2023-05-05T00:16:18.303Z,97225.50
2023-05-05T00:18:46.515Z,97227.78
2023-05-05T00:21:16.430Z,97225.09
2023-05-05T00:23:44.396Z,97227.56
2023-05-05T00:26:12.549Z,97220.09
2023-05-05T00:28:40.774Z,97218.22
2023-05-05T00:31:09.008Z,97216.09
2023-05-05T00:33:37.742Z,97221.03
2023-05-05T00:36:06.310Z,97219.69
2023-05-05T00:38:36.047Z,97214.63
2023-05-05T00:41:04.209Z,97208.72
2023-05-05T00:43:32.686Z,97204.22
2023-05-05T00:46:03.118Z,97214.41
2023-05-05T00:48:31.763Z,97207.63
2023-05-05T00:51:01.494Z,97213.25
2023-05-05T00:53:31.006Z,97199.41
2023-05-05T00:56:00.791Z,97206.97
2023-05-05T00:58:29.986Z,97200.56
2023-05-05T01:00:58.105Z,97201.88
2023-05-05T01:03:26.704Z,97198.22
2023-05-05T01:06:05.875Z,97197.66
2023-05-05T01:08:45.331Z,97204.56
2023-05-05T01:11:26.833Z,97204.13
2023-05-05T01:14:08.600Z,97201.25
2023-05-05T01:16:41.709Z,97204.66
2023-05-05T01:19:23.346Z,97191.41
2023-05-05T01:21:57.264Z,97192.75
2023-05-05T01:25:04.757Z,97191.41
2023-05-05T01:27:56.796Z,97187.69
2023-05-05T01:30:47.715Z,97188.59
2023-05-05T01:33:24.370Z,97189.00
2023-05-05T01:35:57.294Z,97191.50
2023-05-05T01:38:31.668Z,97185.09
2023-05-05T01:41:05.084Z,97187.25
2023-05-05T01:43:36.554Z,97182.66
2023-05-05T01:46:06.978Z,97186.84
2023-05-05T01:48:37.638Z,97181.34
2023-05-05T01:51:07.585Z,97179.03
2023-05-05T01:53:37.821Z,97183.09
2023-05-05T01:56:08.365Z,97182.75
2023-05-05T01:58:38.899Z,97185.94
2023-05-05T02:01:07.583Z,97182.91
2023-05-05T02:03:39.438Z,97184.19
2023-05-05T02:06:11.364Z,97184.56
2023-05-05T02:08:40.971Z,97185.31
2023-05-05T02:11:11.701Z,97188.09
2023-05-05T02:13:43.340Z,97188.00
2023-05-05T02:16:18.135Z,97185.69
2023-05-05T02:18:49.329Z,97186.97
2023-05-05T02:21:18.921Z,97178.47
2023-05-05T02:23:51.646Z,97189.91
2023-05-05T02:26:22.369Z,97187.50
2023-05-05T02:28:58.017Z,97192.66
2023-05-05T02:31:29.554Z,97191.06
2023-05-05T02:34:01.670Z,97190.56
2023-05-05T02:36:39.326Z,97182.72
2023-05-05T02:39:13.965Z,97187.41
2023-05-05T02:41:48.608Z,97183.00
2023-05-05T02:44:26.681Z,97186.13
2023-05-05T02:47:21.674Z,97181.78
2023-05-05T02:49:54.252Z,97188.50
2023-05-05T02:52:22.604Z,97180.78
2023-05-05T02:54:51.469Z,97180.06
2023-05-05T02:57:27.984Z,97174.34
2023-05-05T03:00:07.711Z,97175.91
2023-05-05T03:02:44.721Z,97176.00
2023-05-05T03:05:23.015Z,97172.78
2023-05-05T03:07:57.240Z,97171.66
2023-05-05T03:10:31.092Z,97170.09
2023-05-05T03:13:04.692Z,97170.00
2023-05-05T03:15:42.843Z,97170.09
2023-05-05T03:18:15.510Z,97164.75
2023-05-05T03:20:49.794Z,97153.41
2023-05-05T03:23:21.394Z,97159.09
2023-05-05T03:25:52.807Z,97159.75
2023-05-05T03:28:34.659Z,97153.50
2023-05-05T03:31:09.120Z,97161.50
2023-05-05T03:33:39.481Z,97160.50
2023-05-05T03:36:09.450Z,97163.97
2023-05-05T03:38:37.796Z,97164.69
2023-05-05T03:41:06.059Z,97159.81
2023-05-05T03:43:34.969Z,97168.31
2023-05-05T03:46:04.148Z,97170.25
2023-05-05T03:48:34.404Z,97170.78
2023-05-05T03:51:02.889Z,97164.84
2023-05-05T03:53:35.153Z,97170.34
2023-05-05T03:56:07.388Z,97163.19
2023-05-05T03:58:36.084Z,97172.06
2023-05-05T04:01:05.387Z,97170.69
2023-05-05T04:03:33.726Z,97177.47
2023-05-05T04:06:03.792Z,97174.97
2023-05-05T04:08:35.145Z,97174.81
2023-05-05T04:11:03.712Z,97171.50
2023-05-05T04:13:34.105Z,97178.25
2023-05-05T04:16:03.571Z,97175.00
2023-05-05T04:18:31.888Z,97180.81
2023-05-05T04:21:00.932Z,97177.34
2023-05-05T04:23:29.101Z,97169.69
2023-05-05T04:25:58.558Z,97179.00
2023-05-05T04:28:27.818Z,97167.88
2023-05-05T04:30:55.894Z,97175.97
2023-05-05T04:33:24.616Z,97184.78
2023-05-05T04:35:53.167Z,97186.91
2023-05-05T04:38:21.933Z,97191.94
2023-05-05T04:40:50.314Z,97188.97
2023-05-05T04:43:20.512Z,97197.25
2023-05-05T04:45:55.956Z,97178.16
2023-05-05T04:48:28.102Z,97186.59
2023-05-05T04:50:56.270Z,97186.03
2023-05-05T04:53:25.252Z,97195.47
2023-05-05T04:55:53.774Z,97196.34
2023-05-05T04:58:23.469Z,97198.41
2023-05-05T05:00:51.459Z,97199.47
2023-05-05T05:03:20.904Z,97200.31
2023-05-05T05:05:49.055Z,97204.06
2023-05-05T05:08:18.024Z,97198.34
2023-05-05T05:10:46.361Z,97199.91
2023-05-05T05:13:15.165Z,97205.44
2023-05-05T05:15:45.260Z,97203.84
2023-05-05T05:18:13.766Z,97212.03
2023-05-05T05:20:42.271Z,97203.31
2023-05-05T05:23:10.646Z,97200.97
2023-05-05T05:25:43.826Z,97197.66
2023-05-05T05:28:13.177Z,97200.63
2023-05-05T05:30:49.456Z,97197.69
2023-05-05T05:33:17.817Z,97202.53
2023-05-05T05:35:46.817Z,97202.91
2023-05-05T05:38:16.148Z,97195.03
2023-05-05T05:40:44.394Z,97199.09
2023-05-05T05:43:13.091Z,97191.94
2023-05-05T05:45:41.570Z,97198.91
2023-05-05T05:48:11.594Z,97195.25
2023-05-05T05:50:39.862Z,97190.50
2023-05-05T05:53:08.181Z,97191.50
2023-05-05T05:55:36.409Z,97191.44
2023-05-05T05:58:04.730Z,97197.50
2023-05-05T06:00:33.139Z,97193.75
2023-05-05T06:03:07.776Z,97200.00
2023-05-05T06:05:40.145Z,97191.63
2023-05-05T06:08:08.427Z,97195.00
2023-05-05T06:10:42.126Z,97193.00
2023-05-05T06:13:15.576Z,97199.13
2023-05-05T06:15:47.770Z,97197.38
2023-05-05T06:18:19.531Z,97205.44
2023-05-05T06:20:52.530Z,97203.91
2023-05-05T06:23:26.096Z,97205.84
2023-05-05T06:25:59.517Z,97203.34
2023-05-05T06:28:28.383Z,97204.06
2023-05-05T06:30:57.162Z,97204.06
2023-05-05T06:33:25.737Z,97204.41
2023-05-05T06:35:55.242Z,97207.53
2023-05-05T06:38:23.762Z,97199.88
2023-05-05T06:40:52.092Z,97200.69
2023-05-05T06:43:20.717Z,97199.59
2023-05-05T06:45:55.036Z,97204.50
2023-05-05T06:48:23.281Z,97205.06
2023-05-05T06:50:51.433Z,97205.16
2023-05-05T06:53:21.358Z,97205.75
2023-05-05T06:55:49.832Z,97198.84
2023-05-05T06:58:18.388Z,97192.91
2023-05-05T07:00:46.907Z,97185.53
2023-05-05T07:03:15.808Z,97191.09
2023-05-05T07:05:44.594Z,97181.00
2023-05-05T07:08:13.113Z,97183.34
2023-05-05T07:10:43.207Z,97177.97
2023-05-05T07:13:11.538Z,97181.50
2023-05-05T07:15:46.375Z,97183.06
2023-05-05T07:18:15.045Z,97184.88
2023-05-05T07:20:43.368Z,97186.47
2023-05-05T07:23:12.097Z,97183.72
2023-05-05T07:25:40.264Z,97170.22
2023-05-05T07:28:09.954Z,97163.81
2023-05-05T07:30:37.946Z,97162.97
2023-05-05T07:33:06.673Z,97163.19
2023-05-05T07:35:34.895Z,97163.31
2023-05-05T07:38:04.448Z,97162.47
2023-05-05T07:40:33.888Z,97168.25
2023-05-05T07:43:02.374Z,97158.28
2023-05-05T07:45:32.481Z,97167.72
2023-05-05T07:48:00.720Z,97170.50
2023-05-05T07:50:29.085Z,97159.69
2023-05-05T07:53:06.537Z,97153.78
2023-05-05T07:55:45.665Z,97162.50
2023-05-05T07:58:14.449Z,97169.84
2023-05-05T08:00:46.714Z,97173.97
2023-05-05T08:03:15.265Z,97170.28
2023-05-05T08:05:43.400Z,97174.91
2023-05-05T08:08:11.663Z,97172.69
2023-05-05T08:10:40.127Z,97165.16
2023-05-05T08:13:08.390Z,97165.22
2023-05-05T08:15:36.860Z,97159.28
2023-05-05T08:18:07.028Z,97165.66
2023-05-05T08:20:35.243Z,97173.41
2023-05-05T08:23:03.481Z,97168.53
2023-05-05T08:25:31.610Z,97171.69
2023-05-05T08:28:00.213Z,97161.00
2023-05-05T08:30:29.669Z,97175.41
2023-05-05T08:32:57.904Z,97169.50
2023-05-05T08:35:30.052Z,97175.19
2023-05-05T08:37:59.461Z,97170.50
2023-05-05T08:40:34.333Z,97175.50
2023-05-05T08:43:02.763Z,97163.66
2023-05-05T08:45:31.823Z,97160.34
2023-05-05T08:48:03.552Z,97167.00
2023-05-05T08:50:34.036Z,97169.59
2023-05-05T08:53:11.604Z,97159.56
2023-05-05T08:55:46.661Z,97166.84
2023-05-05T08:58:16.583Z,97163.00
2023-05-05T09:00:46.718Z,97162.84
2023-05-05T09:03:16.719Z,97156.81
2023-05-05T09:05:46.723Z,97167.38
2023-05-05T09:08:15.607Z,97160.31
2023-05-05T09:10:44.839Z,97166.88
2023-05-05T09:13:13.779Z,97167.69
2023-05-05T09:15:42.586Z,97167.19
2023-05-05T09:18:12.217Z,97167.31
2023-05-05T09:20:41.379Z,97160.59
2023-05-05T09:23:12.420Z,97155.13
2023-05-05T09:25:41.689Z,97149.22
2023-05-05T09:28:11.573Z,97145.94
2023-05-05T09:30:40.986Z,97157.16
2023-05-05T09:33:09.179Z,97153.06
2023-05-05T09:35:51.515Z,97153.25
2023-05-05T09:38:22.777Z,97143.31
2023-05-05T09:40:52.448Z,97143.69
2023-05-05T09:43:22.327Z,97150.00
2023-05-05T09:45:51.353Z,97158.97
2023-05-05T09:48:27.338Z,97150.16
2023-05-05T09:50:57.390Z,97144.41
2023-05-05T09:53:27.780Z,97134.50
2023-05-05T09:55:57.087Z,97142.88
2023-05-05T09:58:27.565Z,97136.00
2023-05-05T10:00:57.633Z,97130.25
2023-05-05T10:03:26.958Z,97132.84
2023-05-05T10:05:56.523Z,97142.22
2023-05-05T10:08:28.712Z,97139.88
2023-05-05T10:11:00.947Z,97149.03
2023-05-05T10:13:30.033Z,97142.06
2023-05-05T10:16:01.830Z,97139.69
2023-05-05T10:18:33.039Z,97131.44
2023-05-05T10:21:02.258Z,97135.41
2023-05-05T10:23:39.464Z,97139.69
2023-05-05T10:26:09.298Z,97138.72
2023-05-05T10:28:45.272Z,97137.22
2023-05-05T10:31:25.833Z,97146.59
2023-05-05T10:34:02.083Z,97134.34
2023-05-05T10:36:35.374Z,97138.44
2023-05-05T10:39:07.014Z,97132.31
2023-05-05T10:41:35.964Z,97133.13
2023-05-05T10:44:05.856Z,97127.59
2023-05-05T10:46:34.281Z,97133.00
2023-05-05T10:49:13.436Z,97136.75
2023-05-05T10:51:48.635Z,97122.38
2023-05-05T10:54:28.127Z,97118.06
2023-05-05T10:56:57.214Z,97128.06
2023-05-05T10:59:42.609Z,97118.72
2023-05-05T11:02:21.482Z,97106.38
2023-05-05T11:05:15.222Z,97113.81
2023-05-05T11:07:44.424Z,97118.25
2023-05-05T11:10:16.719Z,97109.50
2023-05-05T11:13:21.523Z,97106.56
2023-05-05T11:15:52.659Z,97100.19
2023-05-05T11:18:37.767Z,97098.28
2023-05-05T11:21:17.167Z,97096.69
2023-05-05T11:23:47.398Z,97090.91
2023-05-05T11:26:19.193Z,97090.81
2023-05-05T11:29:02.678Z,97083.19
2023-05-05T11:31:32.396Z,97087.56
2023-05-05T11:34:28.813Z,97079.88
2023-05-05T11:37:03.707Z,97077.00
2023-05-05T11:39:40.980Z,97077.88
2023-05-05T11:42:35.372Z,97082.16
2023-05-05T11:45:04.530Z,97078.84
2023-05-05T11:47:33.667Z,97084.94
2023-05-05T11:50:19.433Z,97075.13
2023-05-05T11:52:49.465Z,97071.97
2023-05-05T11:55:24.407Z,97066.56
2023-05-05T11:57:54.410Z,97071.47
2023-05-05T12:00:33.583Z,97077.41
2023-05-05T12:03:02.218Z,97081.91
2023-05-05T12:05:31.137Z,97074.53
2023-05-05T12:07:59.951Z,97069.84
2023-05-05T12:10:29.033Z,97067.88
2023-05-05T12:12:59.329Z,97063.88
2023-05-05T12:15:31.738Z,97062.78
2023-05-05T12:18:02.756Z,97067.09
2023-05-05T12:20:34.553Z,97061.16
2023-05-05T12:23:04.869Z,97061.31
2023-05-05T12:25:38.272Z,97058.06
2023-05-05T12:28:09.706Z,97056.81
2023-05-05T12:30:38.346Z,97057.34
2023-05-05T12:33:07.723Z,97046.56
2023-05-05T12:35:36.517Z,97058.69
2023-05-05T12:38:04.655Z,97052.28
2023-05-05T12:40:49.256Z,97062.91
2023-05-05T12:43:40.929Z,97060.25
2023-05-05T12:46:12.034Z,97057.75
2023-05-05T12:48:46.386Z,97050.81
2023-05-05T12:51:21.144Z,97049.09
2023-05-05T12:53:50.563Z,97058.41
2023-05-05T12:56:38.479Z,97050.03
2023-05-05T12:59:09.741Z,97036.47
2023-05-05T13:01:49.078Z,97035.94
2023-05-05T13:04:17.997Z,97035.09
2023-05-05T13:06:48.872Z,97032.09
2023-05-05T13:09:27.184Z,97026.44
2023-05-05T13:11:56.680Z,97025.28
2023-05-05T13:14:26.633Z,97028.38
2023-05-05T13:16:54.657Z,97032.63
2023-05-05T13:19:25.027Z,97018.91
2023-05-05T13:21:53.816Z,97018.47
2023-05-05T13:24:31.584Z,97015.50
2023-05-05T13:27:07.362Z,97014.81
2023-05-05T13:29:37.408Z,97008.19
2023-05-05T13:32:05.883Z,97000.03
2023-05-05T13:34:34.342Z,97005.44
2023-05-05T13:37:02.672Z,96999.47
2023-05-05T13:39:30.840Z,97008.38
2023-05-05T13:42:00.883Z,97001.63
2023-05-05T13:44:29.010Z,96993.00
2023-05-05T13:46:58.840Z,96987.50
2023-05-05T13:49:27.111Z,96986.53
2023-05-05T13:51:56.443Z,96983.06
2023-05-05T13:54:24.720Z,96972.31
2023-05-05T13:56:53.041Z,96977.78
2023-05-05T13:59:21.913Z,96974.94
2023-05-05T14:01:50.207Z,96971.38
2023-05-05T14:04:20.118Z,96982.69
2023-05-05T14:06:48.311Z,96976.97
2023-05-05T14:09:16.604Z,96972.63
2023-05-05T14:11:44.799Z,96962.59
2023-05-05T14:14:13.126Z,96955.81
2023-05-05T14:16:41.369Z,96952.22
2023-05-05T14:19:09.629Z,96950.97
2023-05-05T14:21:39.340Z,96951.31
2023-05-05T14:24:08.070Z,96949.41
2023-05-05T14:26:36.351Z,96951.44
2023-05-05T14:29:04.611Z,96951.53
2023-05-05T14:31:32.809Z,96946.03
2023-05-05T14:34:01.273Z,96955.34
2023-05-05T14:36:29.762Z,96944.16
2023-05-05T14:38:59.421Z,96948.25
2023-05-05T14:41:28.070Z,96944.41
2023-05-05T14:43:57.351Z,96940.81
2023-05-05T14:46:26.279Z,96952.00
2023-05-05T14:48:54.795Z,96948.97
2023-05-05T14:51:22.943Z,96949.13
2023-05-05T14:53:51.242Z,96943.22
2023-05-05T14:56:21.979Z,96943.81
2023-05-05T14:58:50.042Z,96938.94
2023-05-05T15:01:18.477Z,96942.16
2023-05-05T15:03:46.900Z,96945.16
2023-05-05T15:06:15.044Z,96951.75
2023-05-05T15:08:43.387Z,96954.53
2023-05-05T15:11:11.623Z,96957.78
2023-05-05T15:13:41.763Z,96952.84
2023-05-05T15:16:09.871Z,96953.06
2023-05-05T15:18:38.338Z,96951.63
2023-05-05T15:21:06.594Z,96955.28
2023-05-05T15:23:34.858Z,96953.19
2023-05-05T15:26:03.217Z,96950.81
2023-05-05T15:28:31.619Z,96949.22
2023-05-05T15:31:02.735Z,96939.25
2023-05-05T15:33:31.946Z,96937.03
2023-05-05T15:36:00.436Z,96934.22
2023-05-05T15:38:29.360Z,96936.69
2023-05-05T15:40:57.505Z,96939.28
2023-05-05T15:43:25.896Z,96936.47
2023-05-05T15:45:54.956Z,96930.38
2023-05-05T15:48:24.846Z,96936.22
2023-05-05T15:50:53.259Z,96935.84
2023-05-05T15:53:22.586Z,96940.50
2023-05-05T15:55:50.777Z,96933.81
2023-05-05T15:58:19.140Z,96926.41
2023-05-05T16:00:47.280Z,96938.75
2023-05-05T16:03:15.810Z,96936.34
2023-05-05T16:05:47.209Z,96939.22
2023-05-05T16:08:15.571Z,96929.31
2023-05-05T16:10:43.638Z,96929.81
2023-05-05T16:13:12.107Z,96926.97
2023-05-05T16:15:40.436Z,96928.06
2023-05-05T16:18:08.685Z,96925.41
2023-05-05T16:20:37.038Z,96926.28
2023-05-05T16:23:08.194Z,96921.59
2023-05-05T16:25:36.765Z,96917.34
2023-05-05T16:28:05.771Z,96920.00
2023-05-05T16:30:34.323Z,96913.81
2023-05-05T16:33:03.152Z,96909.97
2023-05-05T16:35:31.506Z,96911.91
2023-05-05T16:37:59.667Z,96908.31
2023-05-05T16:40:30.055Z,96912.34
2023-05-05T16:42:59.084Z,96912.97
2023-05-05T16:45:27.312Z,96920.72
2023-05-05T16:47:56.293Z,96919.63
2023-05-05T16:50:24.827Z,96914.28
2023-05-05T16:52:53.302Z,96920.16
2023-05-05T16:55:21.724Z,96925.66
2023-05-05T16:57:52.670Z,96926.66
2023-05-05T17:00:21.061Z,96920.63
2023-05-05T17:02:49.316Z,96924.72
2023-05-05T17:05:18.751Z,96922.44
2023-05-05T17:07:48.332Z,96924.97
2023-05-05T17:10:16.698Z,96921.03
2023-05-05T17:12:44.991Z,96926.22
2023-05-05T17:15:14.654Z,96927.28
2023-05-05T17:17:43.327Z,96928.28
2023-05-05T17:20:13.156Z,96931.81
2023-05-05T17:22:41.428Z,96925.81
2023-05-05T17:25:10.878Z,96934.59
2023-05-05T17:27:39.619Z,96935.19
2023-05-05T17:30:09.966Z,96939.88
2023-05-05T17:32:39.804Z,96936.94
2023-05-05T17:35:08.435Z,96928.16
2023-05-05T17:37:37.247Z,96931.66
2023-05-05T17:40:06.842Z,96930.25
2023-05-05T17:42:35.098Z,96932.56
2023-05-05T17:45:03.406Z,96934.41
2023-05-05T17:47:32.697Z,96936.41
2023-05-05T17:50:05.547Z,96923.09
2023-05-05T17:52:33.904Z,96929.56
2023-05-05T17:55:02.239Z,96925.00
2023-05-05T17:57:30.452Z,96922.06
2023-05-05T18:00:29.013Z,96918.81
2023-05-05T18:03:22.544Z,96930.44
2023-05-05T18:05:52.554Z,96928.69
2023-05-05T18:08:39.387Z,96928.03
2023-05-05T18:11:07.993Z,96927.03
2023-05-05T18:13:36.685Z,96921.16
2023-05-05T18:16:06.412Z,96917.25
2023-05-05T18:18:34.679Z,96924.13
2023-05-05T18:21:04.701Z,96917.94
2023-05-05T18:23:32.798Z,96915.47
2023-05-05T18:26:01.073Z,96913.00
2023-05-05T18:28:36.182Z,96914.50
2023-05-05T18:31:04.821Z,96916.97
2023-05-05T18:33:33.041Z,96913.19
2023-05-05T18:36:01.567Z,96915.34
2023-05-05T18:38:32.201Z,96912.84
2023-05-05T18:41:00.382Z,96906.97
2023-05-05T18:43:28.729Z,96906.81
2023-05-05T18:45:57.261Z,96907.47
2023-05-05T18:48:26.270Z,96912.06
2023-05-05T18:50:54.666Z,96915.53
2023-05-05T18:53:22.719Z,96919.94
2023-05-05T18:55:52.355Z,96918.47
2023-05-05T18:58:20.524Z,96917.97
2023-05-05T19:00:49.337Z,96921.72
2023-05-05T19:03:17.722Z,96920.44
2023-05-05T19:05:45.960Z,96926.66
2023-05-05T19:08:14.346Z,96921.91
2023-05-05T19:45:15.202Z,96892.19
2023-05-05T19:48:08.819Z,96895.00
2023-05-05T19:50:37.241Z,96894.97
2023-05-05T19:53:06.397Z,96895.72
2023-05-05T19:55:34.815Z,96895.31
2023-05-05T19:58:03.136Z,96894.47
2023-05-05T20:00:32.824Z,96896.97
2023-05-05T20:03:01.032Z,96898.31
2023-05-05T20:05:29.673Z,96894.72
2023-05-05T20:07:58.152Z,96901.78
2023-05-05T20:10:27.143Z,96890.91
2023-05-05T20:12:55.339Z,96894.41
2023-05-05T20:15:23.654Z,96893.13
2023-05-05T20:17:53.228Z,96884.78
2023-05-05T20:20:23.025Z,96882.44
2023-05-05T20:22:52.612Z,96885.56
2023-05-05T20:25:20.978Z,96881.78
2023-05-05T20:27:49.110Z,96880.78
2023-05-05T20:30:17.332Z,96879.59
2023-05-05T20:32:45.684Z,96875.16
2023-05-05T20:35:15.941Z,96878.84
2023-05-05T20:37:45.858Z,96870.31
2023-05-05T20:40:14.625Z,96879.34
2023-05-05T20:42:45.822Z,96876.22
2023-05-05T20:45:14.255Z,96876.22
2023-05-05T20:47:42.785Z,96872.94
2023-05-05T20:50:11.708Z,96868.81
2023-05-05T20:52:41.412Z,96862.28
2023-05-05T20:55:09.925Z,96863.63
2023-05-05T20:57:38.623Z,96861.78
2023-05-05T21:00:09.387Z,96856.19
2023-05-05T21:02:38.132Z,96855.31
2023-05-05T21:05:07.125Z,96859.06
2023-05-05T21:07:35.968Z,96859.03
2023-05-05T21:10:07.023Z,96858.84
2023-05-05T21:12:36.093Z,96865.59
2023-05-05T21:15:06.909Z,96860.34
2023-05-05T21:17:35.762Z,96854.44
2023-05-05T21:20:04.015Z,96853.78
2023-05-05T21:22:32.353Z,96857.25
2023-05-05T21:25:12.396Z,96852.69
